Vernon, Oklahoma
Current Conditions -  °F | °C
As of 2:53 AM on Sunday 26 Oct 2014 (Local Time) from KMLC Reporting Station
Clear Clear  
Wind Chill: 69°   Ceiling: Unl
Heat Index: 69°   Visibility: 10mi
Dew Point: 61°   Wind: 7mph
Humidity: 75%   Direction: 200°SSW
Pressure: 30"   Gusts: NA
Location:  35.2158°N, 95.8817°W
Report Text: KMLC 260753Z AUTO 20006KT 10SM CLR 21/16 A3000 RMK AO2 SLP148 T02060161
Loading
Personal Weather Stations






























Interactive Weather Map New forecast layout! Learn more

10-Day Weather Forecast

Advertisements
Track Severe Weather on mobile